sensor_id;sensor_type;location;lat;lon;timestamp;pressure;altitude;pressure_sealevel;temperature;humidity
19128;BME280;9696;53.686;10.094;2022-11-18T00:01:56;100090.03;;;0.84;100.00
19128;BME280;9696;53.686;10.094;2022-11-18T00:04:25;100087.56;;;0.83;100.00
19128;BME280;9696;53.686;10.094;2022-11-18T00:06:54;100096.41;;;0.79;100.00
19128;BME280;9696;53.686;10.094;2022-11-18T00:09:24;100097.31;;;0.78;100.00
19128;BME280;9696;53.686;10.094;2022-11-18T00:11:54;100093.31;;;0.72;100.00
19128;BME280;9696;53.686;10.094;2022-11-18T00:14:41;100103.75;;;0.71;100.00
19128;BME280;9696;53.686;10.094;2022-11-18T00:17:10;100104.47;;;0.73;100.00
19128;BME280;9696;53.686;10.094;2022-11-18T00:19:40;100096.25;;;0.66;100.00
19128;BME280;9696;53.686;10.094;2022-11-18T00:22:11;100100.47;;;0.67;100.00
19128;BME280;9696;53.686;10.094;2022-11-18T00:24:41;100105.38;;;0.72;100.00
19128;BME280;9696;53.686;10.094;2022-11-18T00:27:12;100103.75;;;0.71;100.00
19128;BME280;9696;53.686;10.094;2022-11-18T00:29:41;100102.25;;;0.67;100.00
19128;BME280;9696;53.686;10.094;2022-11-18T00:32:10;100106.41;;;0.69;100.00
19128;BME280;9696;53.686;10.094;2022-11-18T00:34:39;100103.16;;;0.66;100.00
19128;BME280;9696;53.686;10.094;2022-11-18T00:37:09;100105.81;;;0.64;100.00
19128;BME280;9696;53.686;10.094;2022-11-18T00:39:38;100104.19;;;0.63;100.00
19128;BME280;9696;53.686;10.094;2022-11-18T00:42:07;100108.56;;;0.61;100.00
19128;BME280;9696;53.686;10.094;2022-11-18T00:44:55;100112.91;;;0.61;100.00
19128;BME280;9696;53.686;10.094;2022-11-18T00:47:24;100109.59;;;0.59;100.00
19128;BME280;9696;53.686;10.094;2022-11-18T00:49:53;100116.56;;;0.57;100.00
19128;BME280;9696;53.686;10.094;2022-11-18T00:52:23;100118.66;;;0.50;100.00
19128;BME280;9696;53.686;10.094;2022-11-18T00:54:52;100115.31;;;0.48;100.00
19128;BME280;9696;53.686;10.094;2022-11-18T00:57:21;100123.47;;;0.40;100.00
19128;BME280;9696;53.686;10.094;2022-11-18T00:59:50;100122.63;;;0.40;100.00
19128;BME280;9696;53.686;10.094;2022-11-18T01:02:21;100125.16;;;0.41;100.00
19128;BME280;9696;53.686;10.094;2022-11-18T01:04:50;100126.72;;;0.44;100.00
19128;BME280;9696;53.686;10.094;2022-11-18T01:07:19;100123.56;;;0.39;100.00
19128;BME280;9696;53.686;10.094;2022-11-18T01:09:48;100131.97;;;0.42;100.00
19128;BME280;9696;53.686;10.094;2022-11-18T01:12:18;100141.53;;;0.40;100.00
19128;BME280;9696;53.686;10.094;2022-11-18T01:15:05;100136.53;;;0.37;100.00
19128;BME280;9696;53.686;10.094;2022-11-18T01:17:36;100137.38;;;0.38;100.00
19128;BME280;9696;53.686;10.094;2022-11-18T01:20:06;100136.53;;;0.37;100.00
19128;BME280;9696;53.686;10.094;2022-11-18T01:22:35;100132.63;;;0.30;100.00
19128;BME280;9696;53.686;10.094;2022-11-18T01:25:05;100132.53;;;0.32;100.00
19128;BME280;9696;53.686;10.094;2022-11-18T01:27:34;100137.69;;;0.32;100.00
19128;BME280;9696;53.686;10.094;2022-11-18T01:30:04;100135.13;;;0.32;100.00
19128;BME280;9696;53.686;10.094;2022-11-18T01:32:34;100138.69;;;0.29;100.00
19128;BME280;9696;53.686;10.094;2022-11-18T01:35:04;100142.97;;;0.30;100.00
19128;BME280;9696;53.686;10.094;2022-11-18T01:37:34;100145.78;;;0.26;100.00
19128;BME280;9696;53.686;10.094;2022-11-18T01:40:04;100146.69;;;0.25;100.00
19128;BME280;9696;53.686;10.094;2022-11-18T01:42:34;100152.69;;;0.25;100.00
19128;BME280;9696;53.686;10.094;2022-11-18T01:45:19;100154.41;;;0.25;100.00
19128;BME280;9696;53.686;10.094;2022-11-18T01:47:57;100153.34;;;0.29;100.00
19128;BME280;9696;53.686;10.094;2022-11-18T01:50:29;100156.09;;;0.26;100.00
19128;BME280;9696;53.686;10.094;2022-11-18T01:53:04;100154.53;;;0.23;100.00
19128;BME280;9696;53.686;10.094;2022-11-18T01:55:37;100163.16;;;0.22;100.00
19128;BME280;9696;53.686;10.094;2022-11-18T01:58:13;100165.75;;;0.22;100.00
19128;BME280;9696;53.686;10.094;2022-11-18T02:00:45;100171.72;;;0.23;100.00
19128;BME280;9696;53.686;10.094;2022-11-18T02:03:16;100167.56;;;0.20;100.00
19128;BME280;9696;53.686;10.094;2022-11-18T02:05:47;100176.06;;;0.22;100.00
19128;BME280;9696;53.686;10.094;2022-11-18T02:08:18;100175.22;;;0.22;100.00
19128;BME280;9696;53.686;10.094;2022-11-18T02:10:48;100173.53;;;0.21;100.00
19128;BME280;9696;53.686;10.094;2022-11-18T02:13:17;100164.25;;;0.18;100.00
19128;BME280;9696;53.686;10.094;2022-11-18T02:15:52;100169.41;;;0.18;100.00
19128;BME280;9696;53.686;10.094;2022-11-18T02:18:34;100168.38;;;0.21;100.00
19128;BME280;9696;53.686;10.094;2022-11-18T02:21:19;100173.47;;;0.22;100.00
19128;BME280;9696;53.686;10.094;2022-11-18T02:30:02;100170.81;;;0.24;100.00
19128;BME280;9696;53.686;10.094;2022-11-18T02:32:36;100168.81;;;0.29;100.00
19128;BME280;9696;53.686;10.094;2022-11-18T02:35:12;100177.47;;;0.28;100.00
19128;BME280;9696;53.686;10.094;2022-11-18T02:37:47;100175.81;;;0.27;100.00
19128;BME280;9696;53.686;10.094;2022-11-18T02:40:21;100170.72;;;0.25;100.00
19128;BME280;9696;53.686;10.094;2022-11-18T02:42:55;100184.38;;;0.27;100.00
19128;BME280;9696;53.686;10.094;2022-11-18T02:45:30;100176.78;;;0.24;100.00
19128;BME280;9696;53.686;10.094;2022-11-18T02:48:04;100181.94;;;0.24;100.00
19128;BME280;9696;53.686;10.094;2022-11-18T02:50:36;100189.69;;;0.24;100.00
19128;BME280;9696;53.686;10.094;2022-11-18T02:53:08;100192.13;;;0.27;100.00
19128;BME280;9696;53.686;10.094;2022-11-18T02:55:40;100188.84;;;0.24;100.00
19128;BME280;9696;53.686;10.094;2022-11-18T02:58:11;100191.28;;;0.27;100.00
19128;BME280;9696;53.686;10.094;2022-11-18T03:00:43;100202.44;;;0.27;100.00
19128;BME280;9696;53.686;10.094;2022-11-18T03:03:26;100193.88;;;0.27;100.00
19128;BME280;9696;53.686;10.094;2022-11-18T03:06:04;100199.09;;;0.25;100.00
19128;BME280;9696;53.686;10.094;2022-11-18T03:08:39;100199.25;;;0.22;100.00
19128;BME280;9696;53.686;10.094;2022-11-18T03:11:15;100207.00;;;0.22;100.00
19128;BME280;9696;53.686;10.094;2022-11-18T03:13:57;100201.19;;;0.19;100.00
19128;BME280;9696;53.686;10.094;2022-11-18T03:16:37;100202.91;;;0.18;100.00
19128;BME280;9696;53.686;10.094;2022-11-18T03:19:16;100201.19;;;0.19;100.00
19128;BME280;9696;53.686;10.094;2022-11-18T03:21:54;100206.41;;;0.17;100.00
19128;BME280;9696;53.686;10.094;2022-11-18T03:24:30;100202.97;;;0.17;100.00
19128;BME280;9696;53.686;10.094;2022-11-18T03:27:05;100199.75;;;0.13;100.00
19128;BME280;9696;53.686;10.094;2022-11-18T03:29:43;100209.88;;;0.16;100.00
19128;BME280;9696;53.686;10.094;2022-11-18T03:32:20;100201.91;;;0.21;100.00
19128;BME280;9696;53.686;10.094;2022-11-18T03:34:56;100206.22;;;0.20;100.00
19128;BME280;9696;53.686;10.094;2022-11-18T03:37:28;100215.75;;;0.20;100.00
19128;BME280;9696;53.686;10.094;2022-11-18T03:40:02;100209.75;;;0.19;100.00
19128;BME280;9696;53.686;10.094;2022-11-18T03:42:36;100213.22;;;0.18;100.00
19128;BME280;9696;53.686;10.094;2022-11-18T03:45:11;100214.06;;;0.19;100.00
19128;BME280;9696;53.686;10.094;2022-11-18T03:47:48;100218.22;;;0.21;100.00
19128;BME280;9696;53.686;10.094;2022-11-18T03:50:22;100219.00;;;0.23;100.00
19128;BME280;9696;53.686;10.094;2022-11-18T03:52:54;100219.06;;;0.22;100.00
19128;BME280;9696;53.686;10.094;2022-11-18T03:55:25;100219.91;;;0.22;100.00
19128;BME280;9696;53.686;10.094;2022-11-18T03:57:59;100222.31;;;0.25;100.00
19128;BME280;9696;53.686;10.094;2022-11-18T04:00:35;100231.03;;;0.23;100.00
19128;BME280;9696;53.686;10.094;2022-11-18T04:03:08;100235.38;;;0.22;100.00
19128;BME280;9696;53.686;10.094;2022-11-18T04:05:40;100237.09;;;0.22;100.00
19128;BME280;9696;53.686;10.094;2022-11-18T04:08:13;100246.53;;;0.23;100.00
19128;BME280;9696;53.686;10.094;2022-11-18T04:10:50;100249.94;;;0.23;100.00
19128;BME280;9696;53.686;10.094;2022-11-18T04:13:24;100252.66;;;0.20;100.00
19128;BME280;9696;53.686;10.094;2022-11-18T04:15:55;100252.91;;;0.16;100.00
19128;BME280;9696;53.686;10.094;2022-11-18T04:18:26;100252.75;;;0.19;100.00
19128;BME280;9696;53.686;10.094;2022-11-18T04:20:55;100253.72;;;0.16;100.00
19128;BME280;9696;53.686;10.094;2022-11-18T04:23:24;100264.03;;;0.16;100.00
19128;BME280;9696;53.686;10.094;2022-11-18T04:25:54;100267.44;;;0.17;100.00
19128;BME280;9696;53.686;10.094;2022-11-18T04:28:23;100264.97;;;0.15;100.00
19128;BME280;9696;53.686;10.094;2022-11-18T04:30:52;100268.44;;;0.14;100.00
19128;BME280;9696;53.686;10.094;2022-11-18T04:33:21;100268.50;;;0.13;100.00
19128;BME280;9696;53.686;10.094;2022-11-18T04:35:52;100260.78;;;0.13;100.00
19128;BME280;9696;53.686;10.094;2022-11-18T04:38:21;100271.94;;;0.13;100.00
19128;BME280;9696;53.686;10.094;2022-11-18T04:40:50;100268.44;;;0.14;100.00
19128;BME280;9696;53.686;10.094;2022-11-18T04:43:19;100267.59;;;0.14;100.00
19128;BME280;9696;53.686;10.094;2022-11-18T04:45:48;100264.19;;;0.13;100.00
19128;BME280;9696;53.686;10.094;2022-11-18T04:48:17;100278.00;;;0.12;100.00
19128;BME280;9696;53.686;10.094;2022-11-18T04:50:47;100285.66;;;0.14;100.00
19128;BME280;9696;53.686;10.094;2022-11-18T04:53:17;100289.91;;;0.15;100.00
19128;BME280;9696;53.686;10.094;2022-11-18T04:55:47;100285.59;;;0.15;100.00
19128;BME280;9696;53.686;10.094;2022-11-18T04:58:16;100289.13;;;0.13;100.00
19128;BME280;9696;53.686;10.094;2022-11-18T05:00:45;100291.66;;;0.14;100.00
19128;BME280;9696;53.686;10.094;2022-11-18T05:03:14;100288.25;;;0.14;100.00
19128;BME280;9696;53.686;10.094;2022-11-18T05:05:44;100297.72;;;0.13;100.00
19128;BME280;9696;53.686;10.094;2022-11-18T05:08:13;100293.31;;;0.15;100.00
19128;BME280;9696;53.686;10.094;2022-11-18T05:10:43;100298.50;;;0.15;100.00
19128;BME280;9696;53.686;10.094;2022-11-18T05:13:13;100302.88;;;0.13;100.00
19128;BME280;9696;53.686;10.094;2022-11-18T05:15:41;100307.19;;;0.13;100.00
19128;BME280;9696;53.686;10.094;2022-11-18T05:18:10;100301.06;;;0.15;100.00
19128;BME280;9696;53.686;10.094;2022-11-18T05:20:40;100302.88;;;0.13;100.00
19128;BME280;9696;53.686;10.094;2022-11-18T05:23:09;100309.69;;;0.14;100.00
19128;BME280;9696;53.686;10.094;2022-11-18T05:25:38;100316.75;;;0.11;100.00
19128;BME280;9696;53.686;10.094;2022-11-18T05:28:08;100313.28;;;0.12;100.00
19128;BME280;9696;53.686;10.094;2022-11-18T05:30:38;100325.34;;;0.11;100.00
19128;BME280;9696;53.686;10.094;2022-11-18T05:33:07;100319.41;;;0.09;100.00
19128;BME280;9696;53.686;10.094;2022-11-18T05:35:36;100321.97;;;0.09;100.00
19128;BME280;9696;53.686;10.094;2022-11-18T05:38:05;100328.81;;;0.10;100.00
19128;BME280;9696;53.686;10.094;2022-11-18T05:40:35;100329.56;;;0.12;100.00
19128;BME280;9696;53.686;10.094;2022-11-18T05:43:04;100333.97;;;0.10;100.00
19128;BME280;9696;53.686;10.094;2022-11-18T05:45:39;100340.03;;;0.09;100.00
19128;BME280;9696;53.686;10.094;2022-11-18T05:48:09;100342.59;;;0.09;100.00
19128;BME280;9696;53.686;10.094;2022-11-18T05:50:38;100347.75;;;0.09;100.00
19128;BME280;9696;53.686;10.094;2022-11-18T05:53:07;100345.97;;;0.11;100.00
19128;BME280;9696;53.686;10.094;2022-11-18T05:55:39;100363.22;;;0.09;100.00
19128;BME280;9696;53.686;10.094;2022-11-18T05:58:12;100360.03;;;0.04;100.00
19128;BME280;9696;53.686;10.094;2022-11-18T06:00:43;100355.72;;;0.05;100.00
19128;BME280;9696;53.686;10.094;2022-11-18T06:03:19;100368.88;;;0.00;100.00
19128;BME280;9696;53.686;10.094;2022-11-18T06:06:00;100368.72;;;0.03;100.00
19128;BME280;9696;53.686;10.094;2022-11-18T06:08:31;100364.50;;;0.00;100.00
19128;BME280;9696;53.686;10.094;2022-11-18T06:11:03;100364.38;;;0.04;100.00
19128;BME280;9696;53.686;10.094;2022-11-18T06:13:36;100373.09;;;0.01;100.00
19128;BME280;9696;53.686;10.094;2022-11-18T06:16:10;100375.66;;;0.01;100.00
19128;BME280;9696;53.686;10.094;2022-11-18T06:18:41;100366.41;;;-0.03;100.00
19128;BME280;9696;53.686;10.094;2022-11-18T06:21:10;100380.81;;;0.01;100.00
19128;BME280;9696;53.686;10.094;2022-11-18T06:23:40;100386.81;;;0.02;100.00
19128;BME280;9696;53.686;10.094;2022-11-18T06:26:11;100386.75;;;0.03;100.00
19128;BME280;9696;53.686;10.094;2022-11-18T06:28:42;100395.22;;;0.05;100.00
19128;BME280;9696;53.686;10.094;2022-11-18T06:31:13;100393.66;;;0.03;100.00
19128;BME280;9696;53.686;10.094;2022-11-18T06:33:43;100395.31;;;0.04;100.00
19128;BME280;9696;53.686;10.094;2022-11-18T06:36:12;100404.81;;;0.03;100.00
19128;BME280;9696;53.686;10.094;2022-11-18T06:38:41;100404.69;;;0.05;99.94
19128;BME280;9696;53.686;10.094;2022-11-18T06:41:10;100406.59;;;0.01;100.00
19128;BME280;9696;53.686;10.094;2022-11-18T06:43:40;100399.47;;;0.06;100.00
19128;BME280;9696;53.686;10.094;2022-11-18T06:46:12;100403.97;;;0.03;100.00
19128;BME280;9696;53.686;10.094;2022-11-18T06:49:01;100413.50;;;0.00;100.00
19128;BME280;9696;53.686;10.094;2022-11-18T06:51:30;100411.75;;;0.01;99.27
19128;BME280;9696;53.686;10.094;2022-11-18T06:53:59;100412.59;;;0.02;99.47
19128;BME280;9696;53.686;10.094;2022-11-18T06:56:37;100428.06;;;0.02;99.02
19128;BME280;9696;53.686;10.094;2022-11-18T06:59:06;100428.22;;;-0.02;99.07
19128;BME280;9696;53.686;10.094;2022-11-18T07:01:38;100428.91;;;0.02;100.00
19128;BME280;9696;53.686;10.094;2022-11-18T07:04:08;100435.78;;;0.02;100.00
19128;BME280;9696;53.686;10.094;2022-11-18T07:06:37;100433.06;;;0.05;100.00
19128;BME280;9696;53.686;10.094;2022-11-18T07:09:06;100434.13;;;0.00;100.00
19128;BME280;9696;53.686;10.094;2022-11-18T07:11:36;100444.53;;;-0.01;100.00
19128;BME280;9696;53.686;10.094;2022-11-18T07:14:07;100448.84;;;-0.02;100.00
19128;BME280;9696;53.686;10.094;2022-11-18T07:16:38;100449.53;;;0.02;100.00
19128;BME280;9696;53.686;10.094;2022-11-18T07:19:11;100452.16;;;0.00;98.75
19128;BME280;9696;53.686;10.094;2022-11-18T07:21:42;100464.78;;;0.07;98.36
19128;BME280;9696;53.686;10.094;2022-11-18T07:24:13;100461.41;;;0.05;98.46
19128;BME280;9696;53.686;10.094;2022-11-18T07:26:43;100474.41;;;0.03;99.14
19128;BME280;9696;53.686;10.094;2022-11-18T07:29:12;100472.41;;;0.08;98.97
19128;BME280;9696;53.686;10.094;2022-11-18T07:31:42;100477.47;;;0.11;99.04
19128;BME280;9696;53.686;10.094;2022-11-18T07:34:12;100476.06;;;0.04;98.58
19128;BME280;9696;53.686;10.094;2022-11-18T07:36:41;100481.28;;;0.03;97.23
19128;BME280;9696;53.686;10.094;2022-11-18T07:39:10;100491.59;;;0.03;97.57
19128;BME280;9696;53.686;10.094;2022-11-18T07:41:39;100493.13;;;0.07;97.30
19128;BME280;9696;53.686;10.094;2022-11-18T07:44:11;100484.88;;;0.00;96.77
19128;BME280;9696;53.686;10.094;2022-11-18T07:46:42;100491.47;;;0.06;97.77
19128;BME280;9696;53.686;10.094;2022-11-18T07:49:14;100496.69;;;0.04;95.75
19128;BME280;9696;53.686;10.094;2022-11-18T07:51:44;100495.03;;;0.03;96.13
19128;BME280;9696;53.686;10.094;2022-11-18T07:54:13;100502.63;;;0.06;96.31
19128;BME280;9696;53.686;10.094;2022-11-18T07:56:44;100502.66;;;0.05;96.14
19128;BME280;9696;53.686;10.094;2022-11-18T07:59:13;100511.41;;;0.02;95.65
19128;BME280;9696;53.686;10.094;2022-11-18T08:01:45;100515.44;;;0.08;95.14
19128;BME280;9696;53.686;10.094;2022-11-18T08:04:14;100512.97;;;0.05;95.80
19128;BME280;9696;53.686;10.094;2022-11-18T08:06:44;100519.66;;;0.09;94.70
19128;BME280;9696;53.686;10.094;2022-11-18T08:09:13;100517.72;;;0.14;94.27
19128;BME280;9696;53.686;10.094;2022-11-18T08:11:43;100513.09;;;0.20;94.67
19128;BME280;9696;53.686;10.094;2022-11-18T08:14:13;100522.19;;;0.10;94.47
19128;BME280;9696;53.686;10.094;2022-11-18T08:16:43;100527.97;;;0.15;93.67
19128;BME280;9696;53.686;10.094;2022-11-18T08:19:12;100535.72;;;0.15;93.23
19128;BME280;9696;53.686;10.094;2022-11-18T08:21:41;100540.09;;;0.13;92.17
19128;BME280;9696;53.686;10.094;2022-11-18T08:24:11;100531.44;;;0.14;92.88
19128;BME280;9696;53.686;10.094;2022-11-18T08:26:40;100538.06;;;0.20;90.71
19128;BME280;9696;53.686;10.094;2022-11-18T08:29:09;100538.88;;;0.20;92.16
19128;BME280;9696;53.686;10.094;2022-11-18T08:31:39;100540.56;;;0.21;90.52
19128;BME280;9696;53.686;10.094;2022-11-18T08:34:09;100547.47;;;0.21;91.55
19128;BME280;9696;53.686;10.094;2022-11-18T08:36:39;100541.34;;;0.23;89.35
19128;BME280;9696;53.686;10.094;2022-11-18T08:39:10;100545.50;;;0.26;89.13
19128;BME280;9696;53.686;10.094;2022-11-18T08:41:40;100549.56;;;0.31;90.00
19128;BME280;9696;53.686;10.094;2022-11-18T08:44:12;100538.47;;;0.29;88.90
19128;BME280;9696;53.686;10.094;2022-11-18T08:46:41;100552.19;;;0.30;87.58
19128;BME280;9696;53.686;10.094;2022-11-18T08:49:14;100552.19;;;0.30;88.40
19128;BME280;9696;53.686;10.094;2022-11-18T08:51:43;100556.25;;;0.35;89.46
19128;BME280;9696;53.686;10.094;2022-11-18T08:54:13;100550.25;;;0.35;87.37
19128;BME280;9696;53.686;10.094;2022-11-18T08:56:42;100558.81;;;0.35;89.87
19128;BME280;9696;53.686;10.094;2022-11-18T08:59:11;100557.88;;;0.36;88.76
19128;BME280;9696;53.686;10.094;2022-11-18T09:01:40;100563.63;;;0.43;87.36
19128;BME280;9696;53.686;10.094;2022-11-18T09:04:10;100561.84;;;0.43;88.12
19128;BME280;9696;53.686;10.094;2022-11-18T09:06:41;100571.19;;;0.46;86.73
19128;BME280;9696;53.686;10.094;2022-11-18T09:09:10;100580.63;;;0.47;87.01
19128;BME280;9696;53.686;10.094;2022-11-18T09:11:40;100583.88;;;0.51;87.13
19128;BME280;9696;53.686;10.094;2022-11-18T09:14:10;100582.97;;;0.52;86.24
19128;BME280;9696;53.686;10.094;2022-11-18T09:17:00;100584.56;;;0.54;86.79
19128;BME280;9696;53.686;10.094;2022-11-18T09:19:29;100586.94;;;0.59;87.96
19128;BME280;9696;53.686;10.094;2022-11-18T09:22:15;100593.84;;;0.58;86.68
19128;BME280;9696;53.686;10.094;2022-11-18T09:24:44;100598.09;;;0.59;88.54
19128;BME280;9696;53.686;10.094;2022-11-18T09:27:13;100585.31;;;0.56;88.70
19128;BME280;9696;53.686;10.094;2022-11-18T09:29:45;100592.56;;;0.67;87.39
19128;BME280;9696;53.686;10.094;2022-11-18T09:32:14;100607.38;;;0.63;85.81
19128;BME280;9696;53.686;10.094;2022-11-18T09:34:43;100606.28;;;0.67;85.93
19128;BME280;9696;53.686;10.094;2022-11-18T09:37:12;100608.06;;;0.67;87.55
19128;BME280;9696;53.686;10.094;2022-11-18T09:39:43;100624.06;;;0.73;85.53
19128;BME280;9696;53.686;10.094;2022-11-18T09:42:37;100622.25;;;0.75;85.71
19128;BME280;9696;53.686;10.094;2022-11-18T09:45:16;100629.88;;;0.78;84.58
19128;BME280;9696;53.686;10.094;2022-11-18T09:47:57;100631.59;;;0.78;84.05
19128;BME280;9696;53.686;10.094;2022-11-18T09:50:26;100634.94;;;0.80;84.57
19128;BME280;9696;53.686;10.094;2022-11-18T09:53:19;100634.66;;;0.86;83.78
19128;BME280;9696;53.686;10.094;2022-11-18T09:55:51;100641.47;;;0.87;83.84
19128;BME280;9696;53.686;10.094;2022-11-18T09:58:25;100637.16;;;0.87;84.82
19128;BME280;9696;53.686;10.094;2022-11-18T10:00:58;100643.00;;;0.91;85.01
19128;BME280;9696;53.686;10.094;2022-11-18T10:03:29;100650.06;;;0.87;82.63
19128;BME280;9696;53.686;10.094;2022-11-18T10:06:03;100649.22;;;0.87;82.15
19128;BME280;9696;53.686;10.094;2022-11-18T10:08:41;100645.66;;;0.89;82.44
19128;BME280;9696;53.686;10.094;2022-11-18T10:11:17;100652.41;;;0.92;83.97
19128;BME280;9696;53.686;10.094;2022-11-18T10:13:54;100657.75;;;0.89;84.46
19128;BME280;9696;53.686;10.094;2022-11-18T10:16:39;100657.78;;;0.87;84.06
19128;BME280;9696;53.686;10.094;2022-11-18T10:19:21;100650.84;;;0.89;83.90
19128;BME280;9696;53.686;10.094;2022-11-18T10:22:05;100658.38;;;0.75;84.53
19128;BME280;9696;53.686;10.094;2022-11-18T10:24:52;100660.91;;;0.77;84.29
19128;BME280;9696;53.686;10.094;2022-11-18T10:27:25;100668.00;;;0.72;83.41
19128;BME280;9696;53.686;10.094;2022-11-18T10:29:56;100670.31;;;0.78;83.61
19128;BME280;9696;53.686;10.094;2022-11-18T10:32:25;100672.28;;;0.73;84.83
19128;BME280;9696;53.686;10.094;2022-11-18T10:34:56;100674.00;;;0.72;83.89
19128;BME280;9696;53.686;10.094;2022-11-18T10:37:27;100683.59;;;0.70;82.89
19128;BME280;9696;53.686;10.094;2022-11-18T10:40:24;100691.19;;;0.73;84.50
19128;BME280;9696;53.686;10.094;2022-11-18T10:42:55;100691.94;;;0.75;83.69
19128;BME280;9696;53.686;10.094;2022-11-18T10:45:27;100695.44;;;0.74;83.15
19128;BME280;9696;53.686;10.094;2022-11-18T10:47:58;100694.47;;;0.77;82.42
19128;BME280;9696;53.686;10.094;2022-11-18T10:50:31;100698.63;;;0.79;82.00
19128;BME280;9696;53.686;10.094;2022-11-18T10:53:02;100706.50;;;0.95;83.63
19128;BME280;9696;53.686;10.094;2022-11-18T10:55:32;100706.50;;;0.95;82.60
19128;BME280;9696;53.686;10.094;2022-11-18T10:58:08;100703.41;;;1.06;80.59
19128;BME280;9696;53.686;10.094;2022-11-18T11:00:41;100696.25;;;1.11;79.00
19128;BME280;9696;53.686;10.094;2022-11-18T11:03:41;100703.25;;;1.09;79.39
19128;BME280;9696;53.686;10.094;2022-11-18T11:09:02;100691.03;;;1.12;77.09
19128;BME280;9696;53.686;10.094;2022-11-18T11:11:33;100702.75;;;1.19;78.36
19128;BME280;9696;53.686;10.094;2022-11-18T11:14:25;100692.41;;;1.19;76.77
19128;BME280;9696;53.686;10.094;2022-11-18T11:17:08;100707.78;;;1.22;77.05
19128;BME280;9696;53.686;10.094;2022-11-18T11:19:43;100705.19;;;1.22;79.72
19128;BME280;9696;53.686;10.094;2022-11-18T11:22:16;100706.25;;;1.35;79.05
19128;BME280;9696;53.686;10.094;2022-11-18T11:24:45;100705.56;;;1.32;77.13
19128;BME280;9696;53.686;10.094;2022-11-18T11:27:31;100709.00;;;1.32;79.01
19128;BME280;9696;53.686;10.094;2022-11-18T11:30:23;100712.03;;;1.40;77.76
19128;BME280;9696;53.686;10.094;2022-11-18T11:33:13;100713.31;;;1.32;77.03
19128;BME280;9696;53.686;10.094;2022-11-18T11:35:54;100718.22;;;1.38;78.48
19128;BME280;9696;53.686;10.094;2022-11-18T11:38:33;100724.50;;;1.32;76.91
19128;BME280;9696;53.686;10.094;2022-11-18T11:41:08;100726.69;;;1.40;77.78
19128;BME280;9696;53.686;10.094;2022-11-18T11:43:58;100733.56;;;1.41;77.14
19128;BME280;9696;53.686;10.094;2022-11-18T11:46:39;100733.56;;;1.41;77.51
19128;BME280;9696;53.686;10.094;2022-11-18T11:49:44;100734.06;;;1.48;78.65
19128;BME280;9696;53.686;10.094;2022-11-18T11:52:30;100742.88;;;1.43;77.51
19128;BME280;9696;53.686;10.094;2022-11-18T11:55:10;100732.41;;;1.47;77.10
19128;BME280;9696;53.686;10.094;2022-11-18T11:57:58;100742.84;;;1.45;77.67
19128;BME280;9696;53.686;10.094;2022-11-18T12:00:34;100742.16;;;1.41;77.66
19128;BME280;9696;53.686;10.094;2022-11-18T12:03:32;100736.13;;;1.41;76.12
19128;BME280;9696;53.686;10.094;2022-11-18T12:06:08;100737.81;;;1.42;74.88
19128;BME280;9696;53.686;10.094;2022-11-18T12:08:42;100731.50;;;1.48;75.69
19128;BME280;9696;53.686;10.094;2022-11-18T12:11:19;100742.16;;;1.41;75.24
19128;BME280;9696;53.686;10.094;2022-11-18T12:13:55;100737.66;;;1.45;75.79
19128;BME280;9696;53.686;10.094;2022-11-18T12:16:32;100738.09;;;1.36;76.74
19128;BME280;9696;53.686;10.094;2022-11-18T12:19:11;100740.09;;;1.48;76.05
19128;BME280;9696;53.686;10.094;2022-11-18T12:21:55;100737.28;;;1.53;74.27
19128;BME280;9696;53.686;10.094;2022-11-18T12:24:29;100744.13;;;1.54;72.86
19128;BME280;9696;53.686;10.094;2022-11-18T12:27:00;100745.78;;;1.55;74.82
19128;BME280;9696;53.686;10.094;2022-11-18T12:29:37;100738.66;;;1.60;71.46
19128;BME280;9696;53.686;10.094;2022-11-18T12:32:26;100744.28;;;1.68;71.77
19128;BME280;9696;53.686;10.094;2022-11-18T12:34:59;100750.66;;;1.78;72.62
19128;BME280;9696;53.686;10.094;2022-11-18T12:37:57;100752.09;;;1.83;70.19
19128;BME280;9696;53.686;10.094;2022-11-18T12:46:51;100766.78;;;1.66;71.67
19128;BME280;9696;53.686;10.094;2022-11-18T12:52:48;100750.97;;;1.72;71.67
19128;BME280;9696;53.686;10.094;2022-11-18T12:55:28;100761.84;;;1.78;70.42
19128;BME280;9696;53.686;10.094;2022-11-18T12:57:59;100753.84;;;1.83;69.94
19128;BME280;9696;53.686;10.094;2022-11-18T13:00:32;100754.69;;;1.83;71.23
19128;BME280;9696;53.686;10.094;2022-11-18T13:03:24;100744.25;;;2.02;69.28
19128;BME280;9696;53.686;10.094;2022-11-18T13:06:01;100755.97;;;2.09;71.58
19128;BME280;9696;53.686;10.094;2022-11-18T13:08:34;100760.75;;;2.17;71.38
19128;BME280;9696;53.686;10.094;2022-11-18T13:11:09;100755.97;;;2.42;67.27
19128;BME280;9696;53.686;10.094;2022-11-18T13:14:14;100762.59;;;2.30;70.06
19128;BME280;9696;53.686;10.094;2022-11-18T13:17:04;100763.22;;;2.35;68.26
19128;BME280;9696;53.686;10.094;2022-11-18T13:20:19;100766.50;;;2.22;68.67
19128;BME280;9696;53.686;10.094;2022-11-18T13:22:49;100773.50;;;2.37;68.62
19128;BME280;9696;53.686;10.094;2022-11-18T13:25:38;100772.66;;;2.36;67.94
19128;BME280;9696;53.686;10.094;2022-11-18T13:28:17;100784.25;;;2.45;68.21
19128;BME280;9696;53.686;10.094;2022-11-18T13:30:53;100782.00;;;2.39;68.58
19128;BME280;9696;53.686;10.094;2022-11-18T13:33:25;100784.38;;;2.26;70.32
19128;BME280;9696;53.686;10.094;2022-11-18T13:35:54;100784.59;;;2.88;68.97
19128;BME280;9696;53.686;10.094;2022-11-18T13:38:24;100791.44;;;2.40;69.71
19128;BME280;9696;53.686;10.094;2022-11-18T13:40:57;100791.69;;;2.18;71.51
19128;BME280;9696;53.686;10.094;2022-11-18T13:43:32;100791.56;;;2.04;71.84
19128;BME280;9696;53.686;10.094;2022-11-18T13:46:05;100796.47;;;1.93;72.42
19128;BME280;9696;53.686;10.094;2022-11-18T13:48:37;100802.59;;;1.90;71.90